• Join FlightAware (Why Join?)
  • Login
  • US Flag 
02:29PM EDT


 

Airport Tracker/Info


-or-


 

Live Flight TrackerFlight Track Log ✈ N717AN ✈ 12-Jun-2013 ✈ EGLL / LHR - KJFK

Flight Track Log - Related Links

Times and Time Zones

All times are in EDT time to prevent confusion due to time zone crossing. See the N717AN flight status page for this flight to view local times or setup timezone preferences in your user account.

Time Position Orientation Groundspeed Altitude Reporting Facility
EDT Latitude Longitude Course Direction KTS MPH feet Rate Location/Type
11:56AM 51.4710 -0.4610 56° Northeast  Level FlightAware
11:59AM 51.4710 -0.4620 270° West  Level FlightAware
11:59AM 51.4720 -0.4620 360° North  Level FlightAware
12:02PM 51.5421 -0.7939 288° West  Level FlightAware Approximate
12:03PM 51.5757 -0.9619 288° West  Level FlightAware Approximate
12:04PM 51.6107 -1.1294 290° West  Level FlightAware Approximate
12:05PM 51.6489 -1.2951 290° West  Level FlightAware Approximate
12:06PM 51.6851 -1.4587 288° West  Level FlightAware Approximate
12:07PM 51.7190 -1.6271 288° West  Level FlightAware Approximate
12:08PM 51.7526 -1.7958 288° West  Level FlightAware Approximate
12:09PM 51.7906 -1.9620 292° West  Level FlightAware Approximate
12:10PM 51.8318 -2.1266 292° West  Level FlightAware Approximate
12:11PM 51.8684 -2.2939 285° West  Level FlightAware Approximate
12:12PM 51.8971 -2.4655 285° West  Level FlightAware Approximate
12:13PM 51.9273 -2.6365 288° West  Level FlightAware Approximate
12:14PM 51.9612 -2.8058 288° West  Level FlightAware Approximate
12:15PM 51.9939 -2.9756 292° West  Level FlightAware Approximate
12:16PM 52.0344 -3.1412 282° West  Level FlightAware Approximate
12:17PM 52.0577 -3.3156 282° West  Level FlightAware Approximate
12:18PM 52.0920 -3.4845 292° West  Level FlightAware Approximate
12:19PM 52.1283 -3.6528 285° West  Level FlightAware Approximate
12:20PM 52.1571 -3.8254 285° West  Level FlightAware Approximate
12:21PM 52.1915 -3.9951 290° West  Level FlightAware Approximate
12:22PM 52.2252 -4.1655 287° West  Level FlightAware Approximate
12:23PM 52.2575 -4.3368 287° West  Level FlightAware Approximate
12:24PM 52.2896 -4.5083 287° West  Level FlightAware Approximate
12:24PM 51.4650 -0.4860 287° West 175 201 600  Level FlightAware
12:25PM 52.3215 -4.6800 287° West  Level FlightAware Approximate
12:25PM 51.4642 -0.5230 268° West 157 181 2,200  Level FlightAware ADS-B
12:25PM 51.4641 -0.5388 269° West 146 168 2,900 2,520 Climbing FlightAware ADS-B
12:25PM 51.4640 -0.5459 269° West 146 168 3,100 1,980 Climbing FlightAware ADS-B
12:25PM 51.4640 -0.5551 270° West 148 170 3,400 1,500 Climbing FlightAware ADS-B
12:26PM 51.4638 -0.5633 268° West 153 176 3,500 1,200 Climbing FlightAware ADS-B
12:26PM 51.4636 -0.5721 268° West 160 184 3,700 1,260 Climbing FlightAware ADS-B
12:26PM 51.4630 -0.5916 267° West 176 203 4,000 1,020 Climbing FlightAware ADS-B
12:26PM 51.4628 -0.6031 268° West 189 217 4,100 900 Climbing FlightAware ADS-B
12:26PM 51.4627 -0.6094 269° West 194 223 4,200 600 Climbing FlightAware ADS-B
12:26PM 51.4621 -0.6176 263° West 200 230 4,200 660 Level FlightAware ADS-B
12:26PM 51.4615 -0.6225 259° West 203 234 4,300 1,680 Climbing FlightAware ADS-B
12:26PM 51.4608 -0.6273 257° West 204 235 4,400 1,980 Climbing FlightAware ADS-B
12:26PM 51.4601 -0.6316 255° West 207 238 4,500 960 Climbing FlightAware ADS-B
12:27PM 51.4563 -0.6549 255° West 227 261 4,700 1,380 Climbing FlightAware ADS-B
12:27PM 51.4551 -0.6649 259° West 229 264 5,000 2,700 Climbing FlightAware ADS-B
12:27PM 51.4545 -0.6737 264° West 230 265 5,200 2,460 Climbing FlightAware ADS-B
12:27PM 51.4540 -0.6857 266° West 236 272 5,500 2,280 Climbing FlightAware ADS-B
12:27PM 51.4539 -0.6964 269° West 239 275 5,700 2,520 Climbing FlightAware ADS-B
12:27PM 51.4539 -0.7232 270° West 240 276 6,400 2,640 Climbing FlightAware ADS-B
12:28PM 51.4540 -0.7491 270° West 243 280 7,000 2,700 Climbing FlightAware ADS-B
12:28PM 51.4539 -0.7588 269° West 241 277 7,300 2,640 Climbing FlightAware ADS-B
12:28PM 51.4534 -0.7641 261° West 240 276 7,400 2,220 Climbing FlightAware ADS-B
12:28PM 51.4522 -0.7729 258° West 239 275 7,600 2,400 Climbing FlightAware ADS-B
12:28PM 51.4486 -0.7898 251° West 239 275 8,000 2,700 Climbing FlightAware ADS-B
12:28PM 51.4447 -0.8059 249° West 241 277 8,500 2,700 Climbing FlightAware ADS-B
12:28PM 51.4386 -0.8299 248° West 242 278 9,100 2,580 Climbing FlightAware ADS-B
12:29PM 51.4323 -0.8559 249° West 243 280 9,800 2,280 Climbing FlightAware ADS-B
12:29PM 51.4247 -0.8871 249° West 296 341 10,400 1,500 Climbing FlightAware UK
12:29PM 51.4192 -0.9091 249° West 268 308 10,600 1,080 Climbing FlightAware ADS-B
12:30PM 51.4041 -0.9708 249° West 303 349 11,200 1,200 Climbing FlightAware ADS-B
12:30PM 51.3973 -1.0001 250° West 319 367 11,500 1,380 Climbing FlightAware ADS-B
12:30PM 51.3957 -1.0099 255° West 326 375 11,600 1,800 Climbing FlightAware ADS-B
12:30PM 51.3942 -1.0249 261° West 333 383 11,800 1,980 Climbing FlightAware ADS-B
12:30PM 51.3939 -1.0469 269° West 340 391 12,100 2,220 Climbing FlightAware ADS-B
12:30PM 51.3948 -1.0636 275° West 346 398 12,400 2,100 Climbing FlightAware ADS-B
12:30PM 51.3968 -1.0811 280° West 350 403 12,600 2,160 Climbing FlightAware ADS-B
12:31PM 51.4132 -1.1601 288° West 359 413 13,800 2,640 Climbing FlightAware ADS-B
12:31PM 51.4303 -1.2366 290° West 371 427 15,300 2,160 Climbing FlightAware ADS-B
12:32PM 51.4480 -1.3132 290° West 360 414 16,000 780 Climbing FlightAware ADS-B
12:32PM 51.4647 -1.3895 289° West 366 421 16,100 1,800 Climbing FlightAware ADS-B
12:33PM 51.4819 -1.4666 290° West 362 417 17,800 3,120 Climbing FlightAware ADS-B
12:33PM 51.4906 -1.5068 290° West 424 488 18,500 2,700 Climbing FlightAware UK
12:33PM 51.4994 -1.5459 290° West 368 423 19,200 2,160 Climbing FlightAware ADS-B
12:34PM 51.5131 -1.6045 291° West 372 428 19,900 840 Climbing FlightAware ADS-B
12:34PM 51.5346 -1.6897 292° West 381 438 20,000 60 Climbing FlightAware ADS-B
12:35PM 51.5546 -1.7706 292° West 378 435 20,000 1,020 Level FlightAware ADS-B
12:35PM 51.5744 -1.8526 291° West 380 437 21,100 2,160 Climbing FlightAware ADS-B
12:36PM 51.5951 -1.9379 291° West 391 450 22,300 2,220 Climbing FlightAware ADS-B
12:36PM 51.6156 -2.0212 292° West 398 458 23,400 2,160 Climbing FlightAware ADS-B
12:37PM 51.6362 -2.1062 291° West 407 468 24,500 2,160 Climbing FlightAware ADS-B
12:37PM 51.6568 -2.1918 291° West 413 475 25,600 2,040 Climbing FlightAware ADS-B
12:38PM 51.6735 -2.2649 291° West 478 550 26,400 2,040 Climbing FlightAware UK
12:38PM 51.6778 -2.2845 291° West 418 481 26,700 2,100 Climbing FlightAware ADS-B
12:38PM 51.6976 -2.3732 290° West 421 484 27,700 2,160 Climbing FlightAware ADS-B
12:39PM 51.7171 -2.4620 290° West 420 483 28,900 2,100 Climbing FlightAware ADS-B
12:40PM 51.7372 -2.5537 290° West 421 484 29,900 2,220 Climbing FlightAware ADS-B
12:40PM 51.7574 -2.6458 290° West 415 478 31,200 2,040 Climbing FlightAware ADS-B
12:41PM 51.7766 -2.7337 289° West 413 475 32,000 2,100 Climbing FlightAware ADS-B
12:41PM 51.7963 -2.8246 289° West 403 464 33,400 2,160 Climbing FlightAware ADS-B
12:41PM 51.8072 -2.8753 289° West 488 562 33,800 1,080 Climbing FlightAware UK
12:42PM 51.8159 -2.9154 289° West 403 464 34,000 240 Climbing FlightAware ADS-B
12:42PM 51.8330 -2.9950 289° West 404 465 34,000  Level FlightAware
12:42PM 51.8361 -3.0109 289° West 490 564 34,000  Level FlightAware UK
12:43PM 51.8601 -3.1224 289° West 401 461 34,000 -120 Level FlightAware ADS-B
12:43PM 51.8762 -3.1978 289° West 486 559 33,900  Descending FlightAware UK
12:44PM 51.8840 -3.2360 289° West 398 458 34,000  Climbing FlightAware
12:44PM 51.9010 -3.3154 289° West 486 559 33,900  Descending FlightAware UK
12:44PM 51.9080 -3.3480 289° West 398 458 34,000 180 Climbing FlightAware
12:44PM 51.9188 -3.3997 289° West 486 559 34,000  Level FlightAware UK
12:45PM 51.9310 -3.4590 289° West 397 457 34,000 -240 Level FlightAware
12:45PM 51.9365 -3.4839 289° West 484 557 33,900 -180 Descending FlightAware UK
12:45PM 51.9520 -3.5681 289° West 486 559 33,900 120 Level FlightAware UK
12:46PM 51.9570 -3.6000 289° West 387 445 34,000 120 Climbing FlightAware
12:46PM 51.9690 -3.7000 289° West 384 442 34,000 -180 Level FlightAware
12:46PM 51.9722 -3.7202 289° West 484 557 33,900  Descending FlightAware UK
12:47PM 51.9845 -3.8219 289° West 486 559 34,000 120 Climbing FlightAware UK
12:47PM 51.9850 -3.8260 289° West 384 442 34,000 -240 Level FlightAware
12:47PM 51.9950 -3.9067 289° West 486 559 33,900  Descending FlightAware UK
12:48PM 52.0030 -3.9690 289° West 381 438 34,000 60 Climbing FlightAware
12:49PM 52.0180 -4.0920 289° West 486 559 34,000  Level FlightAware UK
12:49PM 52.0180 -4.0950 289° West 380 437 34,000  Level FlightAware
12:49PM 52.0303 -4.1917 289° West 486 559 34,000  Level FlightAware UK
12:49PM 52.0340 -4.2200 289° West 377 434 34,000 -240 Level FlightAware
12:50PM 52.0405 -4.2751 289° West 486 559 33,900  Descending FlightAware UK
12:50PM 52.0460 -4.3200 281° West 375 432 34,000  Climbing FlightAware
12:50PM 52.0524 -4.3749 281° West 486 559 33,900  Descending FlightAware UK
12:51PM 52.0660 -4.4880 281° West 375 432 34,000 60 Climbing FlightAware
12:52PM 52.0810 -4.6130 281° West 374 430 34,000 -120 Level FlightAware
12:52PM 52.0856 -4.6560 281° West 482 555 33,900  Descending FlightAware UK
12:52PM 52.0950 -4.7350 281° West 374 430 34,000 60 Climbing FlightAware
12:53PM 52.1049 -4.8211 281° West 484 557 34,000  Level FlightAware UK
12:53PM 52.1060 -4.8350 281° West 375 432 34,000  Level FlightAware
12:53PM 52.1209 -4.9021 281° West 484 557 34,000  Level FlightAware UK
12:54PM 52.1420 -4.9620 281° West 402 463 34,000  Level FlightAware
12:55PM 52.1780 -5.0680 299° West 398 458 34,000 -120 Level FlightAware
12:55PM 52.2109 -5.1722 299° West 484 557 33,900  Descending FlightAware UK
12:55PM 52.2160 -5.1850 299° West 402 463 34,000 120 Climbing FlightAware
12:56PM 52.2436 -5.2667 299° West 486 559 34,000  Level FlightAware UK
12:56PM 52.2520 -5.2920 299° West 401 461 34,000  Level FlightAware
12:56PM 52.2707 -5.3459 299° West 486 559 34,000  Level FlightAware UK
12:57PM 52.2870 -5.3950 299° West 399 459 34,000  Level FlightAware
12:57PM 52.3238 -5.5041 299° West 484 557 34,000  Level FlightAware UK
12:57PM 52.3290 -5.5190 299° West 397 457 34,000  Level FlightAware
12:58PM 52.3503 -5.5825 299° West 486 559 34,000  Level FlightAware UK
12:58PM 52.3650 -5.6250 299° West 396 456 34,000  Level FlightAware
12:59PM 52.4030 -5.7360 299° West 395 455 34,000  Level FlightAware
12:59PM 52.4370 -5.8390 298° West 398 458 34,000  Level FlightAware
01:00PM 52.4673 -5.9280 298° West 484 557 34,000  Level FlightAware UK
01:00PM 52.4760 -5.9530 298° West 399 459 34,000 -240 Level FlightAware
01:00PM 52.4940 -6.0074 298° West 484 557 33,900  Descending FlightAware UK
01:01PM 52.5140 -6.0670 298° West 400 460 34,000 120 Climbing FlightAware
01:01PM 52.5365 -6.1347 298° West 484 557 34,000  Level FlightAware UK
01:02PM 52.5490 -6.1710 298° West 400 460 34,000  Level FlightAware
01:02PM 52.5860 -6.2830 299° West 403 464 34,000 -120 Level FlightAware
01:03PM 52.6165 -6.3757 299° West 488 562 33,900  Descending FlightAware UK
01:03PM 52.6240 -6.3970 299° West 404 465 34,000 180 Climbing FlightAware
01:03PM 52.6432 -6.4568 299° West 486 559 34,000  Level FlightAware UK
01:04PM 52.6600 -6.5070 299° West 401 461 34,000  Level FlightAware
01:04PM 52.6980 -6.6260 298° West 406 467 34,000 -120 Level FlightAware
01:05PM 52.7281 -6.7166 298° West 480 552 33,900  Descending FlightAware UK
01:05PM 52.7370 -6.7440 298° West 415 478 34,000 180 Climbing FlightAware
01:05PM 52.7556 -6.8013 298° West 480 552 34,000  Level FlightAware UK
01:06PM 52.7720 -6.8510 298° West 423 487 34,000  Level FlightAware
01:06PM 52.8110 -6.9719 298° West 486 559 34,000  Level FlightAware UK
01:07PM 52.8200 -6.9990 298° West 426 490 34,000  Level FlightAware
01:07PM 52.8387 -7.0581 298° West 486 559 34,000  Level FlightAware UK
01:07PM 52.8530 -7.1040 298° West 429 494 34,000  Level FlightAware
01:08PM 52.8999 -7.2490 298° West 488 562 34,000  Level FlightAware UK
01:08PM 52.9020 -7.2550 298° West 431 496 34,000  Level FlightAware
01:08PM 52.9277 -7.3369 298° West 486 559 34,000  Level FlightAware UK
01:09PM 52.9430 -7.3840 298° West 435 501 34,000  Level FlightAware
01:09PM 52.9835 -7.5140 298° West 488 562 34,000  Level FlightAware UK
01:09PM 52.9840 -7.5140 298° West 437 503 34,000  Level FlightAware
01:10PM 53.0116 -7.6033 298° West 488 562 34,000  Level FlightAware UK
01:10PM 53.0360 -7.6820 298° West 440 506 34,000  Level FlightAware
01:11PM 53.0679 -7.7831 298° West 486 559 34,000  Level FlightAware UK
01:11PM 53.0730 -7.8010 298° West 443 510 34,000  Level FlightAware
01:11PM 53.0960 -7.8738 298° West 486 559 34,000  Level FlightAware UK
01:12PM 53.1150 -7.9340 298° West 446 513 34,000  Level FlightAware
01:12PM 53.1527 -8.0569 298° West 486 559 34,000  Level FlightAware UK
01:12PM 53.1500 -8.0490 298° West 448 516 34,000  Level FlightAware
01:13PM 53.1810 -8.1495 298° West 488 562 34,000  Level FlightAware UK
01:13PM 53.1920 -8.1860 298° West 447 514 34,000  Level FlightAware
01:13PM 53.2096 -8.2423 298° West 490 564 34,000  Level FlightAware UK
01:14PM 53.2350 -8.3250 298° West 448 516 34,000  Level FlightAware
01:14PM 53.2662 -8.4284 298° West 490 564 34,000  Level FlightAware UK
01:15PM 53.2680 -8.4350 298° West 449 517 34,000  Level FlightAware
01:15PM 53.3000 -8.5398 298° West 492 566 34,000  Level FlightAware UK
01:15PM 53.3100 -8.5730 298° West 448 516 34,000  Level FlightAware
01:16PM 53.3282 -8.6333 298° West 490 564 34,000  Level FlightAware UK
01:16PM 53.3480 -8.7000 298° West 449 517 34,000  Level FlightAware
01:17PM 53.3842 -8.8205 298° West 490 564 34,000  Level FlightAware UK
01:17PM 53.3850 -8.8230 298° West 450 518 34,000 -240 Level FlightAware
01:17PM 53.4121 -8.9146 298° West 492 566 33,900  Descending FlightAware UK
01:17PM 53.4290 -8.9700 298° West 450 518 34,000 60 Climbing FlightAware
01:18PM 53.4650 -9.0910 297° West 454 522 34,000  Level FlightAware
01:19PM 53.5060 -9.2340 296° West 457 526 34,000  Level FlightAware
01:19PM 53.5440 -9.3640 296° West 458 527 34,000  Level FlightAware
01:20PM 53.5820 -9.4940 296° West 459 528 34,000  Level FlightAware
01:21PM 53.6240 -9.6400 296° West 461 531 34,000  Level FlightAware
01:22PM 53.6670 -9.7880 296° West 464 534 34,000  Level FlightAware
01:22PM 53.7030 -9.9160 295° West 464 534 34,000  Level FlightAware
01:23PM 53.7390 -10.0420 296° West 465 535 34,000  Level FlightAware
01:24PM 53.7800 -10.1850 296° West 465 535 34,000  Level FlightAware
01:24PM 53.8200 -10.3290 295° West 467 537 34,000  Level FlightAware
01:25PM 53.8570 -10.4630 295° West 469 540 34,000  Level FlightAware
01:26PM 53.9030 -10.6250 296° West 469 540 34,000  Level FlightAware
01:26PM 53.9360 -10.7460 295° West 468 539 34,000  Level FlightAware
01:27PM 53.9850 -10.9270 295° West 470 541 34,000  Level FlightAware
01:28PM 54.0240 -11.0680 295° West 471 542 34,000  Level FlightAware
01:29PM 54.0650 -11.2210 295° West 472 543 34,000  Level FlightAware
01:29PM 54.1010 -11.3550 295° West 471 542 34,000  Level FlightAware
01:30PM 54.1280 -11.4550 295° West 472 543 34,000  Level FlightAware
01:31PM 54.1790 -11.6490 294° West 474 545 34,000  Level FlightAware
01:31PM 54.2070 -11.7560 294° West 474 545 34,000  Level FlightAware
01:32PM 54.2510 -11.9250 294° West 475 547 34,000  Level FlightAware
01:33PM 54.2890 -12.0680 295° West 475 547 34,000  Level FlightAware
01:34PM 54.3330 -12.2400 294° West 475 547 34,000  Level FlightAware
01:35PM 54.3750 -12.4040 294° West 471 542 34,000  Level FlightAware
01:35PM 54.3940 -12.4780 294° West 475 547 34,000  Level FlightAware
01:36PM 54.4440 -12.6740 294° West 472 543 34,000  Level FlightAware
01:37PM 54.4760 -12.8020 293° West 472 543 34,000  Level FlightAware
01:37PM 54.5170 -12.9680 293° West 472 543 34,000  Level FlightAware
01:38PM 54.5560 -13.1250 293° West 471 542 34,000  Level FlightAware
01:39PM 54.5860 -13.2470 293° West 473 544 34,000  Level FlightAware
01:39PM 54.6240 -13.4040 293° West 475 547 34,000  Level FlightAware
01:40PM 54.6510 -13.5210 292° West 475 547 34,000  Level FlightAware
01:41PM 54.6760 -13.6260 292° West 475 547 34,000  Level FlightAware
01:41PM 54.7090 -13.7670 292° West 475 547 34,000  Level FlightAware
01:42PM 54.7410 -13.9070 292° West 475 547 34,000  Level FlightAware
01:43PM 54.7690 -14.0280 292° West 475 547 34,000  Level FlightAware
01:44PM 54.7950 -14.1390 292° West 475 547 34,000  Level FlightAware
01:44PM 54.8270 -14.2740 292° West 475 547 34,000  Level FlightAware
01:45PM 54.8530 -14.3850 292° West 475 547 34,000  Level FlightAware
01:46PM 54.8870 -14.5330 292° West 475 547 34,000  Level FlightAware
01:46PM 54.9130 -14.6440 292° West 475 547 34,000  Level FlightAware
01:47PM 54.9390 -14.7560 292° West 475 547 34,000  Level FlightAware
01:48PM 54.9740 -14.9070 292° West 475 547 34,000  Level FlightAware
01:48PM 55.0010 -15.0240 292° West 475 547 34,000  Level FlightAware
01:51PM 55.0922 -15.4305 292° West  Level FlightAware Approximate
01:52PM 55.1362 -15.6295 291° West  Level FlightAware Approximate
01:53PM 55.1799 -15.8289 291° West  Level FlightAware Approximate
01:54PM 55.2233 -16.0287 291° West  Level FlightAware Approximate
01:55PM 55.2663 -16.2290 291° West  Level FlightAware Approximate
01:56PM 55.3090 -16.4298 291° West  Level FlightAware Approximate
01:57PM 55.3514 -16.6309 290° West  Level FlightAware Approximate
01:58PM 55.3934 -16.8325 290° West  Level FlightAware Approximate
01:59PM 55.4351 -17.0345 290° West  Level FlightAware Approximate
02:00PM 55.4765 -17.2369 290° West  Level FlightAware Approximate
02:01PM 55.5175 -17.4398 290° West  Level FlightAware Approximate
02:02PM 55.5582 -17.6430 290° West  Level FlightAware Approximate
02:03PM 55.5986 -17.8467 289° West  Level FlightAware Approximate
02:04PM 55.6386 -18.0508 289° West  Level FlightAware Approximate
02:05PM 55.6783 -18.2554 289° West  Level FlightAware Approximate
02:06PM 55.7177 -18.4603 289° West  Level FlightAware Approximate
02:07PM 55.7567 -18.6656 289° West  Level FlightAware Approximate
02:08PM 55.7953 -18.8714 289° West  Level FlightAware Approximate
02:09PM 55.8337 -19.0776 288° West  Level FlightAware Approximate
02:09PM 56.0000 -20.0000 284° West 492 566 34,000  Level ETMS Enhanced Traffic Management System
02:10PM 55.8716 -19.2841 288° West  Level FlightAware Approximate
02:11PM 55.9092 -19.4906 288° West  Level FlightAware Approximate
02:12PM 55.9464 -19.6975 288° West  Level FlightAware Approximate
02:13PM 55.9832 -19.9048 288° West  Level FlightAware Approximate
02:14PM 56.0163 -20.1140 284° West  Level FlightAware Approximate
02:15PM 56.1960 -21.4277 283° West 492 566 34,000  Level FlightAware Transoceanic
02:16PM 56.2270 -21.6671 283° West 492 566 34,000  Level FlightAware Transoceanic
02:17PM 56.2576 -21.9068 283° West 492 566 34,000  Level FlightAware Transoceanic
02:18PM 56.2877 -22.1469 283° West 492 566 34,000  Level FlightAware Transoceanic
02:19PM 56.3174 -22.3874 282° West 492 566 34,000  Level FlightAware Transoceanic
02:20PM 56.3466 -22.6282 282° West 492 566 34,000  Level FlightAware Transoceanic
02:21PM 56.3753 -22.8695 282° West 492 566 34,000  Level FlightAware Transoceanic
02:22PM 56.4036 -23.1110 282° West 492 566 34,000  Level FlightAware Transoceanic
02:23PM 56.4314 -23.3530 282° West 492 566 34,000  Level FlightAware Transoceanic
02:24PM 56.4587 -23.5953 281° West 492 566 34,000  Level FlightAware Transoceanic
02:25PM 56.4855 -23.8379 281° West 492 566 34,000  Level FlightAware Transoceanic
02:26PM 56.5119 -24.0809 281° West 492 566 34,000  Level FlightAware Transoceanic
02:27PM 56.5378 -24.3242 281° West 492 566 34,000  Level FlightAware Transoceanic
02:28PM 56.5632 -24.5678 281° West 492 566 34,000  Level FlightAware Transoceanic
02:29PM 56.5882 -24.8118 280° West 492 566 34,000  Level FlightAware Transoceanic
02:30PM 56.6126 -25.0561 280° West 492 566 34,000  Level FlightAware Transoceanic
02:31PM 56.6366 -25.3007 280° West 492 566 34,000  Level FlightAware Transoceanic
02:32PM 56.6601 -25.5456 280° West 492 566 34,000  Level FlightAware Transoceanic
02:33PM 56.6831 -25.7908 280° West 492 566 34,000  Level FlightAware Transoceanic
02:34PM 56.7057 -26.0363 279° West 492 566 34,000  Level FlightAware Transoceanic
02:35PM 56.7277 -26.2821 279° West 492 566 34,000  Level FlightAware Transoceanic
02:36PM 56.7493 -26.5282 279° West 492 566 34,000  Level FlightAware Transoceanic
02:37PM 56.7704 -26.7746 279° West 492 566 34,000  Level FlightAware Transoceanic
02:38PM 56.7910 -27.0212 279° West 492 566 34,000  Level FlightAware Transoceanic
02:39PM 56.8111 -27.2681 278° West 492 566 34,000  Level FlightAware Transoceanic
02:40PM 56.8307 -27.5153 278° West 492 566 34,000  Level FlightAware Transoceanic
02:41PM 56.8499 -27.7627 278° West 492 566 34,000  Level FlightAware Transoceanic
02:42PM 56.8685 -28.0104 278° West 492 566 34,000  Level FlightAware Transoceanic
02:43PM 56.8867 -28.2583 278° West 492 566 34,000  Level FlightAware Transoceanic
02:44PM 56.9044 -28.5064 277° West 492 566 34,000  Level FlightAware Transoceanic
02:45PM 56.9215 -28.7548 277° West 492 566 34,000  Level FlightAware Transoceanic
02:46PM 56.9382 -29.0034 277° West 492 566 34,000  Level FlightAware Transoceanic
02:47PM 56.9544 -29.2523 277° West 492 566 34,000  Level FlightAware Transoceanic
02:48PM 56.9701 -29.5013 276° West 492 566 34,000  Level FlightAware Transoceanic
02:49PM 56.9853 -29.7505 276° West 492 566 34,000  Level FlightAware Transoceanic
02:50PM 56.9984 -29.9727 276° West  Level FlightAware Approximate
02:51PM 57.0111 -30.1950 276° West  Level FlightAware Approximate
02:52PM 57.0061 -30.1688 274° West  Level FlightAware Approximate
02:53PM 57.0137 -30.3924 274° West  Level FlightAware Approximate
02:54PM 57.0210 -30.6161 274° West  Level FlightAware Approximate
02:55PM 57.0279 -30.8400 273° West  Level FlightAware Approximate
02:56PM 57.0344 -31.0639 273° West  Level FlightAware Approximate
02:57PM 57.0405 -31.2878 273° West  Level FlightAware Approximate
02:58PM 57.0462 -31.5119 273° West  Level FlightAware Approximate
02:59PM 57.0514 -31.7360 273° West  Level FlightAware Approximate
03:00PM 57.0563 -31.9601 272° West  Level FlightAware Approximate
03:01PM 57.0608 -32.1844 272° West  Level FlightAware Approximate
03:02PM 57.0649 -32.4087 272° West  Level FlightAware Approximate
03:03PM 57.0686 -32.6330 272° West  Level FlightAware Approximate
03:04PM 57.0718 -32.8574 272° West  Level FlightAware Approximate
03:05PM 57.0747 -33.0818 271° West  Level FlightAware Approximate
03:06PM 57.0772 -33.3062 271° West  Level FlightAware Approximate
03:07PM 57.0793 -33.5307 271° West  Level FlightAware Approximate
03:08PM 57.0810 -33.7552 271° West  Level FlightAware Approximate
03:09PM 57.0822 -33.9797 271° West  Level FlightAware Approximate
03:10PM 57.0831 -34.2042 271° West  Level FlightAware Approximate
03:11PM 57.0840 -34.4287 271° West  Level FlightAware Approximate
03:12PM 57.0848 -34.6533 270° West  Level FlightAware Approximate
03:13PM 57.0852 -34.8778 270° West  Level FlightAware Approximate
03:14PM 57.0852 -35.1023 270° West  Level FlightAware Approximate
03:15PM 57.0847 -35.3269 270° West  Level FlightAware Approximate
03:16PM 57.0839 -35.5514 270° West  Level FlightAware Approximate
03:17PM 57.0827 -35.7759 270° West  Level FlightAware Approximate
03:18PM 57.0810 -36.0004 269° West  Level FlightAware Approximate
03:19PM 57.0790 -36.2249 269° West  Level FlightAware Approximate
03:20PM 57.0766 -36.4494 269° West  Level FlightAware Approximate
03:21PM 57.0737 -36.6738 269° West  Level FlightAware Approximate
03:22PM 57.0705 -36.8982 269° West  Level FlightAware Approximate
03:23PM 57.0668 -37.1225 268° West  Level FlightAware Approximate
03:24PM 57.0640 -37.3469 269° West  Level FlightAware Approximate
03:25PM 57.0607 -37.5712 269° West  Level FlightAware Approximate
03:26PM 57.0571 -37.7955 268° West  Level FlightAware Approximate
03:26PM 57.0333 -38.6667 267° West 500 575 34,000  Level Gander Center
03:27PM 57.0531 -38.0197 268° West  Level FlightAware Approximate
03:27PM 57.0333 -38.9333 270° West 500 575 34,000  Level Gander Center
03:28PM 57.0486 -38.2439 268° West  Level FlightAware Approximate
03:28PM 57.0167 -39.1833 263° West 500 575 34,000  Level Gander Center
03:29PM 57.0438 -38.4681 268° West  Level FlightAware Approximate
03:29PM 57.0000 -39.4500 264° West 500 575 34,000  Level Gander Center
03:30PM 57.0386 -38.6921 268° West  Level FlightAware Approximate
03:30PM 56.9833 -39.6833 263° West 500 575 34,000  Level Gander Center
03:31PM 57.0329 -38.9161 267° West  Level FlightAware Approximate
03:31PM 56.9833 -39.9500 270° West 500 575 34,000  Level Gander Center
03:32PM 56.9333 -40.1833 249° West 500 575 34,000  Level Gander Center
03:33PM 56.9000 -40.4333 256° West 500 575 34,000  Level Gander Center
03:34PM 56.8667 -40.6833 256° West 500 575 34,000  Level Gander Center
03:35PM 56.8333 -40.9167 255° West 500 575 34,000  Level Gander Center
03:36PM 56.7833 -41.1500 249° West 500 575 34,000  Level Gander Center
03:37PM 56.7500 -41.4000 256° West 500 575 34,000  Level Gander Center
03:38PM 56.7000 -41.6333 249° West 500 575 34,000  Level Gander Center
03:39PM 56.6667 -41.8667 256° West 500 575 34,000  Level Gander Center
03:40PM 56.6333 -42.1167 256° West 500 575 34,000  Level Gander Center
03:41PM 56.6000 -42.3500 256° West 490 564 34,000  Level Gander Center
03:42PM 56.5500 -42.6000 250° West 490 564 34,000  Level Gander Center
03:43PM 56.5167 -42.8333 256° West 490 564 34,000  Level Gander Center
03:44PM 56.4667 -43.0667 249° West 490 564 34,000  Level Gander Center
03:45PM 56.4167 -43.3000 249° West 490 564 34,000  Level Gander Center
03:46PM 56.3833 -43.5333 256° West 490 564 34,000  Level Gander Center
03:47PM 56.3333 -43.7667 249° West 490 564 34,000  Level Gander Center
03:48PM 56.3000 -43.9833 255° West 490 564 34,000  Level Gander Center
03:49PM 56.2500 -44.2167 249° West 490 564 34,000  Level Gander Center
03:50PM 56.2167 -44.4500 256° West 490 564 34,000  Level Gander Center
03:51PM 56.1500 -44.6833 243° Southwest 490 564 34,000  Level Gander Center
03:52PM 56.1167 -44.9167 256° West 490 564 34,000  Level Gander Center
03:53PM 56.0667 -45.1500 249° West 500 575 34,000  Level Gander Center
03:54PM 56.0167 -45.3833 249° West 500 575 34,000  Level Gander Center
03:55PM 55.9667 -45.6167 249° West 500 575 34,000  Level Gander Center
03:56PM 55.9333 -45.8500 256° West 500 575 34,000  Level Gander Center
03:57PM 55.8667 -46.0833 243° Southwest 500 575 34,000  Level Gander Center
03:58PM 55.8333 -46.2833 254° West 500 575 34,000  Level Gander Center
04:00PM 55.7547 -46.6638 250° West  Level FlightAware Approximate
04:07PM 55.4350 -48.1423 250° West  Level FlightAware Approximate
04:08PM 55.3879 -48.3515 248° West  Level FlightAware Approximate
04:09PM 55.3404 -48.5602 248° West  Level FlightAware Approximate
04:10PM 55.2926 -48.7685 248° West  Level FlightAware Approximate
04:11PM 55.2444 -48.9762 248° West  Level FlightAware Approximate
04:12PM 55.1959 -49.1834 248° West  Level FlightAware Approximate
04:13PM 55.1470 -49.3901 248° West  Level FlightAware Approximate
04:14PM 55.0977 -49.5964 247° West  Level FlightAware Approximate
04:15PM 55.0482 -49.8021 247° West  Level FlightAware Approximate
04:16PM 55.0003 -49.9989 247° West  Level FlightAware Approximate
04:17PM 54.9588 -50.1995 250° West  Level FlightAware Approximate
04:18PM 54.9170 -50.4001 250° West  Level FlightAware Approximate
04:19PM 54.8749 -50.6003 250° West  Level FlightAware Approximate
04:20PM 54.8324 -50.8001 250° West  Level FlightAware Approximate
04:21PM 54.7896 -50.9994 250° West  Level FlightAware Approximate
04:22PM 54.7465 -51.1983 249° West  Level FlightAware Approximate
04:23PM 54.7030 -51.3969 249° West  Level FlightAware Approximate
04:24PM 54.6592 -51.5949 249° West  Level FlightAware Approximate
04:25PM 54.6151 -51.7926 249° West  Level FlightAware Approximate
04:26PM 54.5707 -51.9898 249° West  Level FlightAware Approximate
04:27PM 54.5260 -52.1866 249° West  Level FlightAware Approximate
04:28PM 54.4809 -52.3829 249° West  Level FlightAware Approximate
04:29PM 54.4359 -52.5791 249° West  Level FlightAware Approximate
04:30PM 54.3915 -52.7755 249° West  Level FlightAware Approximate
04:31PM 54.3467 -52.9714 249° West  Level FlightAware Approximate
04:32PM 54.3016 -53.1669 248° West  Level FlightAware Approximate
04:33PM 54.2562 -53.3619 248° West  Level FlightAware Approximate
04:34PM 54.2105 -53.5565 248° West  Level FlightAware Approximate
04:35PM 54.1645 -53.7507 248° West  Level FlightAware Approximate
04:36PM 54.1181 -53.9445 248° West  Level FlightAware Approximate
04:37PM 54.0714 -54.1378 248° West  Level FlightAware Approximate
04:38PM 54.0245 -54.3307 248° West  Level FlightAware Approximate
04:38PM 53.8833 -54.8167 239° Southwest 460 529 34,000  Level Moncton Center
04:39PM 53.9772 -54.5231 247° West  Level FlightAware Approximate
04:39PM 53.8167 -55.0333 243° Southwest 470 541 34,000  Level Moncton Center
04:40PM 53.9275 -54.7236 247° West  Level FlightAware Approximate
04:40PM 53.7500 -55.2167 238° Southwest 470 541 34,000  Level Moncton Center
04:41PM 53.8775 -54.9236 247° West  Level FlightAware Approximate
04:41PM 53.6833 -55.4167 241° Southwest 470 541 34,000  Level Moncton Center
04:42PM 53.8119 -55.0915 239° Southwest  Level FlightAware Approximate
04:42PM 53.6333 -55.5833 243° Southwest 470 541 34,000  Level Moncton Center
04:43PM 53.7460 -55.2773 239° Southwest  Level FlightAware Approximate
04:43PM 53.5167 -55.8833 237° Southwest 470 541 34,000  Level Gander Center
04:44PM 53.4667 -55.9667 225° Southwest 470 541 34,000  Level Gander Center
04:45PM 53.3667 -56.1167 222° Southwest 470 541 34,000  Level Gander Center
04:45PM 53.3333 -56.1833 230° Southwest 470 541 34,000  Level Gander Center
04:46PM 53.2833 -56.2833 230° Southwest 470 541 34,000  Level Moncton Center
04:47PM 53.2000 -56.4333 227° Southwest 470 541 34,000  Level Moncton Center
04:48PM 53.1000 -56.5833 222° Southwest 470 541 34,000  Level Moncton Center
04:48PM 53.0667 -56.6833 241° Southwest 470 541 34,000  Level Gander Center
04:49PM 53.0167 -56.7500 219° Southwest 470 541 34,000 1,080 Level Moncton Center
04:50PM 52.9333 -56.9333 233° Southwest 470 541 35,800 900 Climbing Gander Center
04:51PM 52.8333 -57.1000 225° Southwest 470 541 36,000 60 Climbing Gander Center
04:52PM 52.7500 -57.2333 224° Southwest 470 541 36,000  Level Moncton Center
04:53PM 52.6667 -57.3833 228° Southwest 470 541 36,000  Level Moncton Center
04:54PM 52.5833 -57.5333 228° Southwest 460 529 36,000  Level Moncton Center
04:55PM 52.4833 -57.6833 222° Southwest 460 529 36,000  Level Moncton Center
04:56PM 52.4167 -57.8333 234° Southwest 460 529 36,000  Level Moncton Center
04:57PM 52.3167 -57.9833 223° Southwest 450 518 36,000  Level Moncton Center
04:58PM 52.2167 -58.1333 223° Southwest 460 529 36,000  Level Moncton Center
04:59PM 52.1333 -58.3167 234° Southwest 460 529 36,000  Level Moncton Center
05:00PM 52.0500 -58.4333 221° Southwest 460 529 36,000  Level Moncton Center
05:01PM 51.9667 -58.6167 234° Southwest 460 529 36,000  Level Moncton Center
05:01PM 51.9167 -58.6833 219° Southwest 460 529 36,000  Level Gander Center
05:02PM 51.8667 -58.7667 226° Southwest 460 529 36,000  Level Gander Center
05:03PM 51.7667 -58.9000 220° Southwest 460 529 36,000  Level Gander Center
05:04PM 51.6833 -59.0500 228° Southwest 450 518 36,000  Level Gander Center
05:05PM 51.5833 -59.2167 226° Southwest 460 529 36,000  Level Gander Center
05:06PM 51.5000 -59.3500 225° Southwest 460 529 36,000  Level Gander Center
05:07PM 51.4167 -59.5167 231° Southwest 450 518 36,000  Level Gander Center
05:08PM 51.3333 -59.6500 225° Southwest 450 518 36,000  Level Gander Center
05:09PM 51.2500 -59.7833 225° Southwest 460 529 36,000  Level Gander Center
05:10PM 51.1500 -59.9167 220° Southwest 450 518 36,000  Level Gander Center
05:11PM 51.0667 -60.0500 225° Southwest 460 529 36,000  Level Moncton Center
05:12PM 50.9667 -60.2000 223° Southwest 450 518 36,000  Level Moncton Center
05:13PM 50.8833 -60.3333 225° Southwest 450 518 36,000  Level Moncton Center
05:14PM 50.8000 -60.4833 229° Southwest 450 518 36,000  Level Moncton Center
05:15PM 50.7000 -60.6167 220° Southwest 450 518 36,000  Level Moncton Center
05:16PM 50.6167 -60.7500 225° Southwest 460 529 36,000  Level Moncton Center
05:17PM 50.5167 -60.9167 227° Southwest 460 529 36,000  Level Gander Center
05:18PM 50.4167 -61.0500 220° Southwest 460 529 36,000  Level Gander Center
05:19PM 50.3333 -61.1833 226° Southwest 460 529 36,000  Level Gander Center
05:20PM 50.2333 -61.3333 224° Southwest 460 529 36,000  Level Gander Center
05:21PM 50.1500 -61.4667 226° Southwest 460 529 36,000  Level Gander Center
05:22PM 50.0667 -61.5833 222° Southwest 450 518 36,000  Level Moncton Center
05:23PM 49.9833 -61.7167 226° Southwest 450 518 36,000  Level Moncton Center
05:24PM 49.8833 -61.8500 221° Southwest 450 518 36,000  Level Moncton Center
05:25PM 49.7833 -61.9833 221° Southwest 460 529 36,000  Level Moncton Center
05:26PM 49.7000 -62.1167 226° Southwest 450 518 36,000  Level Moncton Center
05:27PM 49.6000 -62.2500 221° Southwest 460 529 36,000  Level Moncton Center
05:28PM 49.5000 -62.3833 221° Southwest 450 518 36,000  Level Moncton Center
05:29PM 49.4333 -62.5167 232° Southwest 460 529 36,000  Level Moncton Center
05:30PM 49.3333 -62.6500 221° Southwest 460 529 36,000  Level Moncton Center
05:31PM 49.2333 -62.7833 221° Southwest 460 529 36,000  Level Moncton Center
05:32PM 49.1333 -62.9167 221° Southwest 460 529 36,000  Level Moncton Center
05:33PM 49.0333 -63.0500 221° Southwest 460 529 36,000  Level Moncton Center
05:34PM 48.9500 -63.1667 223° Southwest 460 529 36,000  Level Moncton Center
05:35PM 48.8500 -63.3333 228° Southwest 470 541 36,000  Level Moncton Center
05:36PM 48.7500 -63.4500 218° Southwest 470 541 36,000  Level Moncton Center
05:37PM 48.6500 -63.5833 221° Southwest 470 541 36,000  Level Moncton Center
05:38PM 48.5500 -63.7167 221° Southwest 470 541 36,000  Level Moncton Center
05:39PM 48.4500 -63.8500 222° Southwest 470 541 36,000  Level Moncton Center
05:40PM 48.3500 -64.0000 225° Southwest 480 552 36,000  Level Moncton Center
05:41PM 48.2500 -64.1167 218° Southwest 470 541 36,000  Level Moncton Center
05:42PM 48.1500 -64.2500 222° Southwest 480 552 36,000  Level Moncton Center
05:43PM 48.0500 -64.3667 218° Southwest 480 552 36,000  Level Moncton Center
05:44PM 47.9500 -64.5167 225° Southwest 480 552 36,000  Level Moncton Center
05:45PM 47.8500 -64.6500 222° Southwest 480 552 36,000  Level Moncton Center
05:46PM 47.7500 -64.7667 218° Southwest 480 552 36,000  Level Moncton Center
05:47PM 47.6500 -64.9000 222° Southwest 480 552 36,000  Level Moncton Center
05:48PM 47.5500 -65.0500 225° Southwest 490 564 36,000  Level Moncton Center
05:49PM 47.4500 -65.1667 218° Southwest 490 564 36,000  Level Moncton Center
05:50PM 47.3500 -65.3167 225° Southwest 490 564 36,000  Level Moncton Center
05:51PM 47.2500 -65.4333 218° Southwest 490 564 36,000  Level Moncton Center
05:52PM 47.1500 -65.5500 218° Southwest 490 564 36,000  Level Moncton Center
05:53PM 47.0333 -65.7000 221° Southwest 490 564 36,000  Level Moncton Center
05:54PM 46.9333 -65.8167 219° Southwest 490 564 36,000  Level Moncton Center
05:55PM 46.8167 -65.9667 221° Southwest 490 564 36,000  Level Moncton Center
06:00PM 46.2270 -66.7000 221° Southwest 490 564 36,000  Level FlightAware
06:01PM 46.1410 -66.8020 219° Southwest 489 563 36,000  Level FlightAware
06:02PM 46.0650 -66.8930 220° Southwest 487 560 36,000  Level FlightAware
06:02PM 46.0090 -66.9600 220° Southwest 487 560 36,000  Level FlightAware
06:03PM 45.9240 -67.0600 219° Southwest 481 554 36,000  Level FlightAware
06:04PM 45.8470 -67.1510 219° Southwest 481 554 36,000  Level FlightAware
06:05PM 45.7770 -67.2320 219° Southwest 480 552 36,000  Level FlightAware
06:05PM 45.6980 -67.3250 219° Southwest 480 552 36,000  Level FlightAware
06:06PM 45.6300 -67.4040 219° Southwest 482 555 36,000  Level FlightAware
06:07PM 45.5580 -67.4880 219° Southwest 483 556 36,000  Level FlightAware
06:07PM 45.4960 -67.5590 219° Southwest 482 555 36,000  Level FlightAware
06:08PM 45.4090 -67.6600 219° Southwest 480 552 36,000  Level FlightAware
06:09PM 45.3400 -67.7430 220° Southwest 485 558 36,000  Level FlightAware
06:09PM 45.2790 -67.8350 227° Southwest 484 557 36,000  Level FlightAware
06:10PM 45.2180 -67.9310 228° Southwest 484 557 36,000  Level FlightAware
06:11PM 45.1290 -68.0710 228° Southwest 483 556 36,000  Level FlightAware
06:12PM 45.0680 -68.1660 228° Southwest 483 556 36,000  Level FlightAware
06:12PM 45.0060 -68.2630 228° Southwest 483 556 36,000  Level FlightAware
06:13PM 44.9450 -68.3560 227° Southwest 483 556 36,000  Level FlightAware
06:14PM 44.8740 -68.4580 226° Southwest 485 558 36,000  Level FlightAware
06:15PM 44.8070 -68.5450 223° Southwest 487 560 36,000  Level FlightAware
06:15PM 44.7390 -68.6300 222° Southwest 488 562 36,000  Level FlightAware
06:16PM 44.6650 -68.7200 221° Southwest 488 562 36,000  Level FlightAware
06:17PM 44.5930 -68.8080 221° Southwest 490 564 36,000  Level FlightAware
06:17PM 44.5280 -68.8880 221° Southwest 489 563 36,000  Level FlightAware
06:18PM 44.4490 -68.9840 221° Southwest 488 562 36,000  Level FlightAware
06:19PM 44.3740 -69.0760 221° Southwest 487 560 36,000  Level FlightAware
06:19PM 44.3060 -69.1590 221° Southwest 487 560 36,000  Level FlightAware
06:20PM 44.2320 -69.2490 221° Southwest 484 557 36,000  Level FlightAware
06:21PM 44.1710 -69.3220 221° Southwest 479 551 36,000  Level FlightAware
06:22PM 44.0920 -69.4180 221° Southwest 476 548 36,000  Level FlightAware
06:22PM 44.0250 -69.4990 221° Southwest 476 548 36,000  Level FlightAware
06:23PM 43.9540 -69.5830 220° Southwest 478 550 36,000  Level FlightAware
06:24PM 43.8890 -69.6610 221° Southwest 479 551 36,000  Level FlightAware
06:24PM 43.8140 -69.7510 221° Southwest 481 554 36,000  Level FlightAware
06:26PM 43.6930 -69.8940 221° Southwest 482 555 36,000  Level FlightAware
06:26PM 43.6250 -69.9750 221° Southwest 483 556 36,000  Level FlightAware
06:27PM 43.5560 -70.0550 220° Southwest 487 560 36,000  Level FlightAware
06:28PM 43.4770 -70.1480 221° Southwest 488 562 36,000  Level FlightAware
06:28PM 43.4090 -70.2280 221° Southwest 487 560 36,000  Level FlightAware
06:29PM 43.3400 -70.3080 220° Southwest 484 557 36,000  Level FlightAware
06:30PM 43.2850 -70.3720 220° Southwest 483 556 36,000  Level FlightAware
06:30PM 43.2000 -70.4710 220° Southwest 481 554 36,000  Level FlightAware
06:31PM 43.1100 -70.5750 220° Southwest 479 551 36,000  Level FlightAware
06:32PM 43.0300 -70.6350 209° Southwest 497 572 36,000  Level FlightAware
06:33PM 42.9360 -70.6930 204° Southwest 499 574 36,000  Level FlightAware
06:33PM 42.8530 -70.7480 206° Southwest 500 575 36,000  Level FlightAware
06:34PM 42.7760 -70.8010 207° Southwest 500 575 36,000  Level FlightAware
06:35PM 42.6780 -70.8630 205° Southwest 500 575 36,000  Level FlightAware
06:35PM 42.5860 -70.9170 203° Southwest 499 574 36,000  Level FlightAware
06:36PM 42.4950 -70.9720 204° Southwest 501 577 36,000  Level FlightAware
06:37PM 42.4180 -71.0180 204° Southwest 501 577 36,000  Level FlightAware
06:38PM 42.3270 -71.0730 204° Southwest 500 575 36,000  Level FlightAware
06:38PM 42.2330 -71.1300 204° Southwest 500 575 36,000  Level FlightAware
06:39PM 42.1520 -71.1780 204° Southwest 492 566 36,000  Level FlightAware
06:40PM 42.0550 -71.2350 204° Southwest 500 575 36,000  Level FlightAware
06:40PM 41.9710 -71.2850 204° Southwest 500 575 36,000 -120 Level FlightAware
06:41PM 41.8940 -71.3300 204° Southwest 499 574 35,900 -660 Descending FlightAware
06:42PM 41.7920 -71.3900 204° Southwest 505 581 35,100 -1,560 Descending FlightAware
06:42PM 41.7100 -71.4480 208° Southwest 502 578 33,600 -2,100 Descending FlightAware
06:43PM 41.6400 -71.5220 218° Southwest 486 559 32,300 -2,340 Descending FlightAware
06:44PM 41.5630 -71.6090 220° Southwest 475 547 30,300 -2,760 Descending FlightAware
06:45PM 41.4990 -71.6820 221° Southwest 475 547 28,400 -2,520 Descending FlightAware
06:45PM 41.4170 -71.7720 219° Southwest 457 526 26,700 -2,400 Descending FlightAware
06:46PM 41.3350 -71.8630 220° Southwest 450 518 24,500 -1,380 Descending FlightAware
06:47PM 41.2710 -71.9330 219° Southwest 414 476 24,000 -300 Descending FlightAware
06:48PM 41.1740 -72.0390 219° Southwest 409 471 24,000  Level FlightAware
06:49PM 41.1130 -72.1070 220° Southwest 409 471 24,000 -720 Level FlightAware
06:49PM 41.1190 -72.1450 282° West 327 376 23,300 -900 Descending FlightAware
06:50PM 41.1020 -72.2040 249° West 327 376 23,300  Level FlightAware
06:50PM 41.0800 -72.2800 249° West 327 376 23,300  Level FlightAware
06:51PM 41.0630 -72.3370 248° West 327 376 23,300 -3,000 Level FlightAware
06:52PM 41.0300 -72.4560 250° West 294 338 19,200 -3,120 Descending FlightAware
06:53PM 41.0040 -72.5430 248° West 261 300 17,900 -1,560 Descending FlightAware
06:53PM 40.9870 -72.6030 249° West 256 295 16,700 -1,440 Descending FlightAware
06:54PM 40.9710 -72.6570 249° West 252 290 16,100 -420 Descending FlightAware
06:55PM 40.9500 -72.7280 249° West 252 290 16,100  Level FlightAware
06:56PM 40.9330 -72.7890 250° West 249 287 16,100  Level FlightAware
06:56PM 40.9190 -72.8200 239° Southwest 264 304 16,100 -180 Level FlightAware
06:56PM 40.9000 -72.8380 216° Southwest 278 320 16,000 -480 Descending FlightAware
06:56PM 40.8880 -72.8450 204° Southwest 289 333 15,900 -1,080 Descending FlightAware
06:57PM 40.8350 -72.8280 166° South 326 375 15,100 -1,080 Descending FlightAware
06:57PM 40.8210 -72.8020 125° Southeast 337 388 14,900 -900 Descending FlightAware
06:58PM 40.8160 -72.7660 100° East 335 386 14,600 -1,080 Descending FlightAware
06:58PM 40.8200 -72.7430 77° East 320 368 14,400 -1,020 Descending FlightAware
06:59PM 40.8470 -72.6680 65° Northeast 302 348 13,700 -840 Descending FlightAware
06:59PM 40.8710 -72.6020 64° Northeast 314 361 13,200 -480 Descending FlightAware
07:00PM 40.9080 -72.5370 53° Northeast 305 351 13,100 -300 Descending FlightAware
07:01PM 40.9840 -72.5380 359° North 267 307 12,700 -480 Descending FlightAware
07:02PM 41.0070 -72.5900 300° West 264 304 12,100 -300 Descending FlightAware
07:03PM 41.0180 -72.6560 282° West 264 304 12,100  Level FlightAware
07:03PM 40.9410 -72.7140 210° Southwest 315 362 12,100  Level FlightAware
07:04PM 40.9100 -72.7520 223° Southwest 302 348 12,100  Level FlightAware
07:04PM 40.8740 -72.7960 223° Southwest 302 348 12,100  Level FlightAware
07:05PM 40.8210 -72.8630 224° Southwest 299 344 12,100 -180 Level FlightAware
07:06PM 40.7790 -72.9160 224° Southwest 299 344 11,900 -900 Descending FlightAware
07:07PM 40.7360 -72.9730 225° Southwest 295 339 10,800 -1,380 Descending FlightAware
07:07PM 40.7000 -73.0270 229° Southwest 290 334 10,000 -1,200 Descending FlightAware
07:08PM 40.6770 -73.0650 231° Southwest 285 328 9,500 -1,080 Descending FlightAware
07:08PM 40.6570 -73.0970 231° Southwest 280 322 9,100 -900 Descending FlightAware
07:09PM 40.6320 -73.1370 231° Southwest 280 322 8,700 -960 Descending FlightAware
07:09PM 40.6110 -73.1710 231° Southwest 277 319 8,200 -1,140 Descending FlightAware
07:10PM 40.5860 -73.2110 231° Southwest 273 314 7,600 -1,260 Descending FlightAware
07:10PM 40.5620 -73.2500 231° Southwest 272 313 7,000 -1,320 Descending FlightAware
07:10PM 40.5390 -73.2860 230° Southwest 274 315 6,400 -1,140 Descending FlightAware
07:11PM 40.5190 -73.3190 231° Southwest 268 308 6,000 -840 Descending FlightAware
07:11PM 40.5110 -73.3320 231° Southwest 268 308 5,900 -960 Descending FlightAware
07:12PM 40.4890 -73.3660 230° Southwest 261 300 5,400 -1,020 Descending FlightAware
07:12PM 40.4660 -73.4040 232° Southwest 253 291 4,900 -1,080 Descending FlightAware
07:13PM 40.4460 -73.4370 231° Southwest 251 289 4,400 -1,200 Descending FlightAware
07:13PM 40.4310 -73.4610 231° Southwest 251 289 3,900 -1,320 Descending FlightAware
07:13PM 40.4130 -73.5020 240° Southwest 251 289 3,200 -1,200 Descending FlightAware
07:14PM 40.4090 -73.5150 248° West 253 291 3,100 -180 Descending FlightAware
07:14PM 40.3960 -73.5690 252° West 251 289 3,100  Level FlightAware
07:15PM 40.3870 -73.6080 253° West 252 290 3,100 -120 Level FlightAware
07:15PM 40.3760 -73.6540 253° West 249 287 3,000 -660 Descending FlightAware
07:16PM 40.3660 -73.6950 252° West 252 290 2,500 -960 Descending FlightAware
07:16PM 40.3600 -73.7210 253° West 255 293 2,200 -660 Descending FlightAware
07:16PM 40.3570 -73.7490 262° West 255 293 2,100 -180 Descending FlightAware
07:17PM 40.3590 -73.7960 273° West 242 278 2,100  Level FlightAware
07:17PM 40.3600 -73.8320 272° West 217 250 2,100  Level FlightAware
07:18PM 40.3650 -73.8690 280° West 206 237 2,100  Level FlightAware
07:18PM 40.3750 -73.8840 311° West 203 234 2,100  Level FlightAware
07:18PM 40.3820 -73.8910 323° Northwest 203 234 2,100  Level FlightAware
07:18PM 40.3990 -73.8970 345° North 205 236 2,100  Level FlightAware
07:19PM 40.4250 -73.8980 358° North 206 237 2,100  Level FlightAware
07:19PM 40.4460 -73.8990 358° North 206 237 2,100  Level FlightAware
07:20PM 40.4770 -73.8860 18° North 211 243 2,100  Level FlightAware
07:20PM 40.4840 -73.8810 29° Northeast 205 236 2,100  Level FlightAware
07:20PM 40.4960 -73.8720 30° Northeast 189 217 2,100  Level FlightAware
07:21PM 40.5260 -73.8480 31° Northeast 180 207 2,100 -240 Level FlightAware
07:21PM 40.5450 -73.8330 31° Northeast 182 209 1,900 -780 Descending FlightAware
07:22PM 40.5660 -73.8170 30° Northeast 179 206 1,400 -1,080 Descending FlightAware